sensor_id;sensor_type;location;lat;lon;timestamp;P1;durP1;ratioP1;P2;durP2;ratioP2
8074;SDS011;4080;42.676;23.372;2023-07-16T10:15:31;15.45;;;13.85;;
8074;SDS011;4080;42.676;23.372;2023-07-16T10:17:59;9.85;;;8.95;;
8074;SDS011;4080;42.676;23.372;2023-07-16T10:20:29;12.05;;;9.70;;
8074;SDS011;4080;42.676;23.372;2023-07-16T10:22:57;13.45;;;9.38;;
8074;SDS011;4080;42.676;23.372;2023-07-16T10:25:25;12.85;;;9.50;;
8074;SDS011;4080;42.676;23.372;2023-07-16T10:27:55;11.13;;;9.32;;
8074;SDS011;4080;42.676;23.372;2023-07-16T10:30:21;10.50;;;9.45;;
8074;SDS011;4080;42.676;23.372;2023-07-16T10:32:51;10.57;;;9.32;;
8074;SDS011;4080;42.676;23.372;2023-07-16T10:35:19;11.63;;;9.02;;
8074;SDS011;4080;42.676;23.372;2023-07-16T10:37:46;12.18;;;9.50;;
8074;SDS011;4080;42.676;23.372;2023-07-16T10:40:13;10.75;;;9.05;;
8074;SDS011;4080;42.676;23.372;2023-07-16T10:42:40;11.07;;;9.88;;
8074;SDS011;4080;42.676;23.372;2023-07-16T10:45:08;10.48;;;9.20;;
8074;SDS011;4080;42.676;23.372;2023-07-16T10:47:36;11.15;;;9.90;;
8074;SDS011;4080;42.676;23.372;2023-07-16T10:50:06;11.95;;;9.80;;
8074;SDS011;4080;42.676;23.372;2023-07-16T10:52:34;10.77;;;9.68;;
8074;SDS011;4080;42.676;23.372;2023-07-16T10:55:01;12.63;;;9.68;;
8074;SDS011;4080;42.676;23.372;2023-07-16T10:57:28;11.05;;;9.93;;
8074;SDS011;4080;42.676;23.372;2023-07-16T10:59:56;14.50;;;10.38;;
8074;SDS011;4080;42.676;23.372;2023-07-16T11:02:25;16.10;;;10.35;;
8074;SDS011;4080;42.676;23.372;2023-07-16T11:04:52;10.30;;;9.30;;
8074;SDS011;4080;42.676;23.372;2023-07-16T11:07:21;11.70;;;10.50;;
8074;SDS011;4080;42.676;23.372;2023-07-16T11:09:48;11.32;;;9.77;;
8074;SDS011;4080;42.676;23.372;2023-07-16T11:12:16;16.25;;;10.55;;
8074;SDS011;4080;42.676;23.372;2023-07-16T11:14:44;11.63;;;10.18;;
8074;SDS011;4080;42.676;23.372;2023-07-16T11:17:12;12.23;;;9.73;;
8074;SDS011;4080;42.676;23.372;2023-07-16T11:19:40;10.75;;;9.65;;
8074;SDS011;4080;42.676;23.372;2023-07-16T11:22:10;10.95;;;9.90;;
8074;SDS011;4080;42.676;23.372;2023-07-16T11:24:40;13.90;;;10.25;;
8074;SDS011;4080;42.676;23.372;2023-07-16T11:27:12;11.07;;;9.98;;
8074;SDS011;4080;42.676;23.372;2023-07-16T11:29:40;12.13;;;9.95;;
8074;SDS011;4080;42.676;23.372;2023-07-16T11:32:11;12.15;;;10.25;;
8074;SDS011;4080;42.676;23.372;2023-07-16T11:34:37;12.27;;;10.98;;
8074;SDS011;4080;42.676;23.372;2023-07-16T11:37:17;10.35;;;9.27;;
8074;SDS011;4080;42.676;23.372;2023-07-16T11:39:47;11.23;;;10.23;;
8074;SDS011;4080;42.676;23.372;2023-07-16T11:42:14;11.13;;;10.07;;
8074;SDS011;4080;42.676;23.372;2023-07-16T11:44:49;12.90;;;9.98;;
8074;SDS011;4080;42.676;23.372;2023-07-16T11:47:16;12.60;;;10.32;;
8074;SDS011;4080;42.676;23.372;2023-07-16T11:49:43;14.73;;;10.15;;
8074;SDS011;4080;42.676;23.372;2023-07-16T11:52:09;11.07;;;9.90;;
8074;SDS011;4080;42.676;23.372;2023-07-16T11:54:36;11.80;;;10.48;;
8074;SDS011;4080;42.676;23.372;2023-07-16T11:57:04;11.57;;;10.38;;
8074;SDS011;4080;42.676;23.372;2023-07-16T11:59:32;10.80;;;9.80;;
8074;SDS011;4080;42.676;23.372;2023-07-16T12:01:58;11.02;;;9.95;;
8074;SDS011;4080;42.676;23.372;2023-07-16T12:04:26;10.68;;;9.52;;
8074;SDS011;4080;42.676;23.372;2023-07-16T12:06:52;13.27;;;10.50;;
8074;SDS011;4080;42.676;23.372;2023-07-16T12:09:19;12.25;;;10.55;;
8074;SDS011;4080;42.676;23.372;2023-07-16T12:11:46;11.75;;;10.02;;
8074;SDS011;4080;42.676;23.372;2023-07-16T12:14:14;11.25;;;10.15;;
8074;SDS011;4080;42.676;23.372;2023-07-16T12:16:40;11.98;;;10.00;;
8074;SDS011;4080;42.676;23.372;2023-07-16T12:19:08;10.60;;;9.60;;
8074;SDS011;4080;42.676;23.372;2023-07-16T12:21:35;11.05;;;9.95;;
8074;SDS011;4080;42.676;23.372;2023-07-16T12:24:03;13.20;;;11.95;;
8074;SDS011;4080;42.676;23.372;2023-07-16T12:26:30;15.68;;;13.15;;
8074;SDS011;4080;42.676;23.372;2023-07-16T12:28:57;12.73;;;10.68;;
8074;SDS011;4080;42.676;23.372;2023-07-16T12:31:25;17.45;;;13.27;;
8074;SDS011;4080;42.676;23.372;2023-07-16T12:33:52;15.98;;;13.50;;
8074;SDS011;4080;42.676;23.372;2023-07-16T12:36:19;13.50;;;10.02;;
8074;SDS011;4080;42.676;23.372;2023-07-16T12:38:45;12.80;;;9.93;;
8074;SDS011;4080;42.676;23.372;2023-07-16T12:41:12;12.75;;;10.80;;
8074;SDS011;4080;42.676;23.372;2023-07-16T12:43:40;13.77;;;12.32;;
8074;SDS011;4080;42.676;23.372;2023-07-16T12:46:07;11.68;;;9.63;;
8074;SDS011;4080;42.676;23.372;2023-07-16T12:48:35;12.52;;;10.90;;
8074;SDS011;4080;42.676;23.372;2023-07-16T12:51:02;12.55;;;11.05;;
8074;SDS011;4080;42.676;23.372;2023-07-16T12:53:29;16.58;;;14.73;;
8074;SDS011;4080;42.676;23.372;2023-07-16T12:55:55;12.52;;;10.32;;
8074;SDS011;4080;42.676;23.372;2023-07-16T12:58:22;10.77;;;9.48;;
8074;SDS011;4080;42.676;23.372;2023-07-16T13:00:49;10.95;;;9.85;;
8074;SDS011;4080;42.676;23.372;2023-07-16T13:03:15;11.20;;;8.90;;
8074;SDS011;4080;42.676;23.372;2023-07-16T13:05:44;10.80;;;9.75;;
8074;SDS011;4080;42.676;23.372;2023-07-16T13:08:12;11.00;;;9.73;;
8074;SDS011;4080;42.676;23.372;2023-07-16T13:10:39;10.75;;;9.65;;
8074;SDS011;4080;42.676;23.372;2023-07-16T13:13:06;15.60;;;9.82;;
8074;SDS011;4080;42.676;23.372;2023-07-16T13:15:33;10.30;;;9.27;;
8074;SDS011;4080;42.676;23.372;2023-07-16T13:18:00;12.60;;;9.45;;
8074;SDS011;4080;42.676;23.372;2023-07-16T13:20:26;10.90;;;9.68;;
8074;SDS011;4080;42.676;23.372;2023-07-16T13:22:56;10.60;;;9.50;;
8074;SDS011;4080;42.676;23.372;2023-07-16T13:25:23;11.13;;;9.40;;
8074;SDS011;4080;42.676;23.372;2023-07-16T13:27:50;15.75;;;12.63;;
8074;SDS011;4080;42.676;23.372;2023-07-16T13:30:18;12.85;;;9.60;;
8074;SDS011;4080;42.676;23.372;2023-07-16T13:32:45;12.13;;;9.43;;
8074;SDS011;4080;42.676;23.372;2023-07-16T13:35:13;11.82;;;9.80;;
8074;SDS011;4080;42.676;23.372;2023-07-16T13:37:40;12.85;;;9.93;;
8074;SDS011;4080;42.676;23.372;2023-07-16T13:40:09;11.23;;;10.13;;
8074;SDS011;4080;42.676;23.372;2023-07-16T13:42:36;10.23;;;9.23;;
8074;SDS011;4080;42.676;23.372;2023-07-16T13:45:03;10.40;;;9.32;;
8074;SDS011;4080;42.676;23.372;2023-07-16T13:47:30;11.90;;;9.50;;
8074;SDS011;4080;42.676;23.372;2023-07-16T13:49:57;10.35;;;9.30;;
8074;SDS011;4080;42.676;23.372;2023-07-16T13:52:24;10.48;;;9.07;;
8074;SDS011;4080;42.676;23.372;2023-07-16T13:54:50;11.25;;;9.90;;
8074;SDS011;4080;42.676;23.372;2023-07-16T13:57:18;13.35;;;10.02;;
8074;SDS011;4080;42.676;23.372;2023-07-16T13:59:45;12.48;;;9.98;;
8074;SDS011;4080;42.676;23.372;2023-07-16T14:02:12;10.23;;;8.90;;
8074;SDS011;4080;42.676;23.372;2023-07-16T14:04:38;10.48;;;9.43;;
8074;SDS011;4080;42.676;23.372;2023-07-16T14:07:05;12.73;;;9.20;;
8074;SDS011;4080;42.676;23.372;2023-07-16T14:09:32;12.75;;;9.45;;
8074;SDS011;4080;42.676;23.372;2023-07-16T14:11:58;10.85;;;9.05;;
8074;SDS011;4080;42.676;23.372;2023-07-16T14:14:26;11.07;;;8.90;;
8074;SDS011;4080;42.676;23.372;2023-07-16T14:16:54;11.27;;;9.57;;
8074;SDS011;4080;42.676;23.372;2023-07-16T14:19:20;11.48;;;10.27;;
8074;SDS011;4080;42.676;23.372;2023-07-16T14:21:47;10.00;;;8.57;;
8074;SDS011;4080;42.676;23.372;2023-07-16T14:24:14;10.00;;;9.07;;
8074;SDS011;4080;42.676;23.372;2023-07-16T14:26:40;10.38;;;8.85;;
8074;SDS011;4080;42.676;23.372;2023-07-16T14:29:06;10.20;;;8.90;;
8074;SDS011;4080;42.676;23.372;2023-07-16T14:31:35;10.60;;;9.50;;
8074;SDS011;4080;42.676;23.372;2023-07-16T14:34:01;14.52;;;10.95;;
8074;SDS011;4080;42.676;23.372;2023-07-16T14:36:28;15.68;;;9.35;;
8074;SDS011;4080;42.676;23.372;2023-07-16T14:38:55;11.80;;;9.18;;
8074;SDS011;4080;42.676;23.372;2023-07-16T14:41:22;10.25;;;9.25;;
8074;SDS011;4080;42.676;23.372;2023-07-16T14:43:48;10.38;;;9.48;;
8074;SDS011;4080;42.676;23.372;2023-07-16T14:46:15;10.00;;;9.02;;
8074;SDS011;4080;42.676;23.372;2023-07-16T14:48:43;10.55;;;9.45;;
8074;SDS011;4080;42.676;23.372;2023-07-16T14:51:10;9.95;;;9.05;;
8074;SDS011;4080;42.676;23.372;2023-07-16T14:53:38;9.95;;;9.00;;
8074;SDS011;4080;42.676;23.372;2023-07-16T14:56:04;10.68;;;9.60;;
8074;SDS011;4080;42.676;23.372;2023-07-16T14:58:32;10.40;;;9.40;;
8074;SDS011;4080;42.676;23.372;2023-07-16T15:00:59;10.93;;;9.57;;
8074;SDS011;4080;42.676;23.372;2023-07-16T15:03:28;10.70;;;9.63;;
8074;SDS011;4080;42.676;23.372;2023-07-16T15:05:57;10.05;;;9.13;;
8074;SDS011;4080;42.676;23.372;2023-07-16T15:08:24;11.30;;;9.00;;
8074;SDS011;4080;42.676;23.372;2023-07-16T15:10:52;11.38;;;10.20;;
8074;SDS011;4080;42.676;23.372;2023-07-16T15:13:21;13.10;;;10.35;;
8074;SDS011;4080;42.676;23.372;2023-07-16T15:15:50;11.40;;;10.27;;
8074;SDS011;4080;42.676;23.372;2023-07-16T15:18:17;11.75;;;10.02;;
8074;SDS011;4080;42.676;23.372;2023-07-16T15:20:44;10.80;;;9.75;;
8074;SDS011;4080;42.676;23.372;2023-07-16T15:23:13;11.00;;;9.82;;
8074;SDS011;4080;42.676;23.372;2023-07-16T15:25:40;11.48;;;10.27;;
8074;SDS011;4080;42.676;23.372;2023-07-16T15:28:08;11.68;;;10.48;;
8074;SDS011;4080;42.676;23.372;2023-07-16T15:30:35;11.32;;;10.32;;
8074;SDS011;4080;42.676;23.372;2023-07-16T15:33:02;11.77;;;10.68;;
8074;SDS011;4080;42.676;23.372;2023-07-16T15:35:29;12.80;;;11.13;;
8074;SDS011;4080;42.676;23.372;2023-07-16T15:37:56;12.55;;;11.23;;
8074;SDS011;4080;42.676;23.372;2023-07-16T15:40:26;13.27;;;11.90;;
8074;SDS011;4080;42.676;23.372;2023-07-16T15:42:53;11.95;;;10.82;;
8074;SDS011;4080;42.676;23.372;2023-07-16T15:45:20;13.10;;;11.83;;
8074;SDS011;4080;42.676;23.372;2023-07-16T15:47:47;13.17;;;11.60;;
8074;SDS011;4080;42.676;23.372;2023-07-16T15:50:15;13.57;;;12.27;;
8074;SDS011;4080;42.676;23.372;2023-07-16T15:52:42;13.57;;;12.17;;
8074;SDS011;4080;42.676;23.372;2023-07-16T15:55:09;14.10;;;12.73;;
8074;SDS011;4080;42.676;23.372;2023-07-16T15:57:37;16.43;;;13.33;;
8074;SDS011;4080;42.676;23.372;2023-07-16T16:00:07;13.20;;;12.00;;
8074;SDS011;4080;42.676;23.372;2023-07-16T16:02:39;13.93;;;12.53;;
8074;SDS011;4080;42.676;23.372;2023-07-16T16:05:06;14.93;;;13.37;;
8074;SDS011;4080;42.676;23.372;2023-07-16T16:07:33;13.77;;;12.50;;
8074;SDS011;4080;42.676;23.372;2023-07-16T16:10:00;14.63;;;12.57;;
8074;SDS011;4080;42.676;23.372;2023-07-16T16:12:26;13.53;;;12.40;;
8074;SDS011;4080;42.676;23.372;2023-07-16T16:14:54;13.70;;;12.43;;
8074;SDS011;4080;42.676;23.372;2023-07-16T16:17:21;14.27;;;12.93;;
8074;SDS011;4080;42.676;23.372;2023-07-16T16:19:48;13.90;;;12.50;;
8074;SDS011;4080;42.676;23.372;2023-07-16T16:22:15;15.27;;;12.73;;
8074;SDS011;4080;42.676;23.372;2023-07-16T16:24:41;18.80;;;13.50;;
8074;SDS011;4080;42.676;23.372;2023-07-16T16:27:08;17.07;;;13.63;;
8074;SDS011;4080;42.676;23.372;2023-07-16T16:29:35;14.23;;;12.93;;
8074;SDS011;4080;42.676;23.372;2023-07-16T16:32:03;15.03;;;13.20;;
8074;SDS011;4080;42.676;23.372;2023-07-16T16:34:30;14.33;;;12.93;;
8074;SDS011;4080;42.676;23.372;2023-07-16T16:36:57;14.07;;;12.57;;
8074;SDS011;4080;42.676;23.372;2023-07-16T16:39:24;14.73;;;13.17;;
8074;SDS011;4080;42.676;23.372;2023-07-16T16:41:50;15.30;;;12.77;;
8074;SDS011;4080;42.676;23.372;2023-07-16T16:44:17;14.10;;;12.77;;
8074;SDS011;4080;42.676;23.372;2023-07-16T16:46:44;14.53;;;13.03;;
8074;SDS011;4080;42.676;23.372;2023-07-16T16:49:12;14.30;;;12.90;;
8074;SDS011;4080;42.676;23.372;2023-07-16T16:51:39;13.57;;;12.30;;
8074;SDS011;4080;42.676;23.372;2023-07-16T16:54:05;13.47;;;12.17;;
8074;SDS011;4080;42.676;23.372;2023-07-16T16:56:32;14.47;;;12.83;;
8074;SDS011;4080;42.676;23.372;2023-07-16T16:58:59;14.13;;;12.83;;
8074;SDS011;4080;42.676;23.372;2023-07-16T17:01:25;14.53;;;13.13;;
8074;SDS011;4080;42.676;23.372;2023-07-16T17:03:52;14.33;;;12.93;;
8074;SDS011;4080;42.676;23.372;2023-07-16T17:06:22;14.07;;;12.53;;
8074;SDS011;4080;42.676;23.372;2023-07-16T17:08:49;15.00;;;13.50;;
8074;SDS011;4080;42.676;23.372;2023-07-16T17:11:16;14.47;;;13.17;;
8074;SDS011;4080;42.676;23.372;2023-07-16T17:13:43;13.90;;;12.60;;
8074;SDS011;4080;42.676;23.372;2023-07-16T17:16:10;14.07;;;12.87;;
8074;SDS011;4080;42.676;23.372;2023-07-16T17:18:36;20.20;;;12.97;;
8074;SDS011;4080;42.676;23.372;2023-07-16T17:21:03;14.10;;;12.70;;
8074;SDS011;4080;42.676;23.372;2023-07-16T17:23:31;13.80;;;12.60;;
8074;SDS011;4080;42.676;23.372;2023-07-16T17:25:59;13.93;;;12.73;;
8074;SDS011;4080;42.676;23.372;2023-07-16T17:28:26;15.37;;;12.73;;
8074;SDS011;4080;42.676;23.372;2023-07-16T17:30:52;13.77;;;12.53;;
8074;SDS011;4080;42.676;23.372;2023-07-16T17:33:24;13.77;;;12.37;;
8074;SDS011;4080;42.676;23.372;2023-07-16T17:35:51;13.77;;;12.37;;
8074;SDS011;4080;42.676;23.372;2023-07-16T17:38:17;13.87;;;12.67;;
8074;SDS011;4080;42.676;23.372;2023-07-16T17:40:45;14.40;;;13.00;;
8074;SDS011;4080;42.676;23.372;2023-07-16T17:43:12;16.27;;;13.07;;
8074;SDS011;4080;42.676;23.372;2023-07-16T17:45:39;16.13;;;12.93;;
8074;SDS011;4080;42.676;23.372;2023-07-16T17:48:05;16.80;;;12.87;;
8074;SDS011;4080;42.676;23.372;2023-07-16T17:50:32;14.70;;;12.63;;
8074;SDS011;4080;42.676;23.372;2023-07-16T17:52:59;13.87;;;12.47;;
8074;SDS011;4080;42.676;23.372;2023-07-16T17:55:27;13.63;;;12.43;;
8074;SDS011;4080;42.676;23.372;2023-07-16T17:57:55;14.00;;;12.63;;
8074;SDS011;4080;42.676;23.372;2023-07-16T18:00:22;15.90;;;13.63;;
8074;SDS011;4080;42.676;23.372;2023-07-16T18:02:49;15.03;;;12.87;;
8074;SDS011;4080;42.676;23.372;2023-07-16T18:05:16;14.77;;;12.33;;
8074;SDS011;4080;42.676;23.372;2023-07-16T18:07:43;15.30;;;13.40;;
8074;SDS011;4080;42.676;23.372;2023-07-16T18:10:09;16.73;;;14.47;;
8074;SDS011;4080;42.676;23.372;2023-07-16T18:12:36;15.37;;;12.60;;
8074;SDS011;4080;42.676;23.372;2023-07-16T18:15:05;16.43;;;13.80;;
8074;SDS011;4080;42.676;23.372;2023-07-16T18:17:32;16.23;;;13.53;;
8074;SDS011;4080;42.676;23.372;2023-07-16T18:19:59;14.80;;;13.50;;
8074;SDS011;4080;42.676;23.372;2023-07-16T18:22:26;14.87;;;13.47;;
8074;SDS011;4080;42.676;23.372;2023-07-16T18:24:53;14.83;;;13.33;;
8074;SDS011;4080;42.676;23.372;2023-07-16T18:27:19;15.77;;;13.27;;
8074;SDS011;4080;42.676;23.372;2023-07-16T18:29:46;16.23;;;13.00;;
8074;SDS011;4080;42.676;23.372;2023-07-16T18:32:15;14.67;;;13.27;;
8074;SDS011;4080;42.676;23.372;2023-07-16T18:34:41;17.03;;;13.97;;
8074;SDS011;4080;42.676;23.372;2023-07-16T18:37:08;15.20;;;13.57;;
8074;SDS011;4080;42.676;23.372;2023-07-16T18:39:35;15.57;;;13.23;;
8074;SDS011;4080;42.676;23.372;2023-07-16T18:42:01;16.77;;;13.97;;
8074;SDS011;4080;42.676;23.372;2023-07-16T18:44:28;14.50;;;13.07;;
8074;SDS011;4080;42.676;23.372;2023-07-16T18:46:55;15.50;;;13.87;;
8074;SDS011;4080;42.676;23.372;2023-07-16T18:49:23;14.60;;;13.10;;
8074;SDS011;4080;42.676;23.372;2023-07-16T18:51:50;16.33;;;13.27;;
8074;SDS011;4080;42.676;23.372;2023-07-16T18:54:16;14.73;;;13.23;;
8074;SDS011;4080;42.676;23.372;2023-07-16T18:56:43;16.03;;;13.10;;
8074;SDS011;4080;42.676;23.372;2023-07-16T18:59:10;14.50;;;12.97;;
8074;SDS011;4080;42.676;23.372;2023-07-16T19:01:37;15.83;;;14.23;;
8074;SDS011;4080;42.676;23.372;2023-07-16T19:04:04;15.53;;;13.93;;
8074;SDS011;4080;42.676;23.372;2023-07-16T19:06:33;14.93;;;13.57;;
8074;SDS011;4080;42.676;23.372;2023-07-16T19:09:00;15.40;;;13.97;;
8074;SDS011;4080;42.676;23.372;2023-07-16T19:11:27;15.00;;;13.63;;
8074;SDS011;4080;42.676;23.372;2023-07-16T19:13:53;15.13;;;13.67;;
8074;SDS011;4080;42.676;23.372;2023-07-16T19:16:22;15.30;;;13.80;;
8074;SDS011;4080;42.676;23.372;2023-07-16T19:18:48;14.97;;;13.23;;
8074;SDS011;4080;42.676;23.372;2023-07-16T19:21:15;14.93;;;13.43;;
8074;SDS011;4080;42.676;23.372;2023-07-16T19:23:43;15.23;;;13.70;;
8074;SDS011;4080;42.676;23.372;2023-07-16T19:26:10;17.20;;;13.80;;
8074;SDS011;4080;42.676;23.372;2023-07-16T19:28:37;14.63;;;13.30;;
8074;SDS011;4080;42.676;23.372;2023-07-16T19:31:04;15.03;;;13.57;;
8074;SDS011;4080;42.676;23.372;2023-07-16T19:33:31;17.37;;;13.67;;
8074;SDS011;4080;42.676;23.372;2023-07-16T19:35:58;15.57;;;13.90;;
8074;SDS011;4080;42.676;23.372;2023-07-16T19:38:25;14.83;;;13.03;;
8074;SDS011;4080;42.676;23.372;2023-07-16T19:40:53;14.23;;;12.93;;
8074;SDS011;4080;42.676;23.372;2023-07-16T19:43:20;14.57;;;13.17;;
8074;SDS011;4080;42.676;23.372;2023-07-16T19:45:47;15.00;;;13.53;;
8074;SDS011;4080;42.676;23.372;2023-07-16T19:48:14;14.80;;;13.37;;
8074;SDS011;4080;42.676;23.372;2023-07-16T19:50:41;15.27;;;13.63;;
8074;SDS011;4080;42.676;23.372;2023-07-16T19:53:12;14.67;;;13.27;;
8074;SDS011;4080;42.676;23.372;2023-07-16T19:55:40;13.87;;;12.50;;
8074;SDS011;4080;42.676;23.372;2023-07-16T19:58:09;14.20;;;12.90;;
8074;SDS011;4080;42.676;23.372;2023-07-16T20:00:35;14.20;;;12.63;;
8074;SDS011;4080;42.676;23.372;2023-07-16T20:03:02;14.30;;;12.97;;
8074;SDS011;4080;42.676;23.372;2023-07-16T20:05:31;14.30;;;12.20;;
8074;SDS011;4080;42.676;23.372;2023-07-16T20:08:02;15.70;;;12.60;;
8074;SDS011;4080;42.676;23.372;2023-07-16T20:10:29;13.80;;;12.50;;
8074;SDS011;4080;42.676;23.372;2023-07-16T20:12:56;14.50;;;12.87;;
8074;SDS011;4080;42.676;23.372;2023-07-16T20:15:24;14.77;;;13.03;;
8074;SDS011;4080;42.676;23.372;2023-07-16T20:17:51;16.10;;;13.13;;
8074;SDS011;4080;42.676;23.372;2023-07-16T20:20:18;15.60;;;13.77;;
8074;SDS011;4080;42.676;23.372;2023-07-16T20:22:44;16.27;;;13.40;;
8074;SDS011;4080;42.676;23.372;2023-07-16T20:25:11;14.97;;;13.20;;
8074;SDS011;4080;42.676;23.372;2023-07-16T20:27:40;14.40;;;12.87;;
8074;SDS011;4080;42.676;23.372;2023-07-16T20:30:11;13.93;;;12.60;;
8074;SDS011;4080;42.676;23.372;2023-07-16T20:32:39;14.70;;;13.27;;
8074;SDS011;4080;42.676;23.372;2023-07-16T20:35:06;14.47;;;13.07;;
8074;SDS011;4080;42.676;23.372;2023-07-16T20:37:36;14.67;;;13.00;;
8074;SDS011;4080;42.676;23.372;2023-07-16T20:40:03;18.03;;;13.03;;
8074;SDS011;4080;42.676;23.372;2023-07-16T20:42:35;14.93;;;13.27;;
8074;SDS011;4080;42.676;23.372;2023-07-16T20:45:12;15.17;;;12.90;;
8074;SDS011;4080;42.676;23.372;2023-07-16T20:47:42;15.30;;;13.13;;
8074;SDS011;4080;42.676;23.372;2023-07-16T20:50:10;13.73;;;12.53;;
8074;SDS011;4080;42.676;23.372;2023-07-16T20:52:37;13.63;;;12.43;;
8074;SDS011;4080;42.676;23.372;2023-07-16T20:55:05;13.67;;;12.40;;
8074;SDS011;4080;42.676;23.372;2023-07-16T20:57:33;13.87;;;12.57;;
8074;SDS011;4080;42.676;23.372;2023-07-16T21:00:00;14.50;;;12.90;;
8074;SDS011;4080;42.676;23.372;2023-07-16T21:02:27;13.77;;;12.47;;
8074;SDS011;4080;42.676;23.372;2023-07-16T21:04:55;14.50;;;13.03;;
8074;SDS011;4080;42.676;23.372;2023-07-16T21:07:22;14.63;;;13.07;;
8074;SDS011;4080;42.676;23.372;2023-07-16T21:09:49;16.00;;;14.32;;
8074;SDS011;4080;42.676;23.372;2023-07-16T21:12:15;15.60;;;14.03;;
8074;SDS011;4080;42.676;23.372;2023-07-16T21:14:42;15.90;;;13.90;;
8074;SDS011;4080;42.676;23.372;2023-07-16T21:17:09;17.50;;;14.83;;
8074;SDS011;4080;42.676;23.372;2023-07-16T21:19:36;16.50;;;14.77;;
8074;SDS011;4080;42.676;23.372;2023-07-16T21:22:04;16.17;;;14.63;;
8074;SDS011;4080;42.676;23.372;2023-07-16T21:24:32;15.73;;;14.20;;
8074;SDS011;4080;42.676;23.372;2023-07-16T21:26:59;16.10;;;14.47;;
8074;SDS011;4080;42.676;23.372;2023-07-16T21:29:25;15.20;;;13.63;;
8074;SDS011;4080;42.676;23.372;2023-07-16T21:31:52;15.03;;;13.50;;
8074;SDS011;4080;42.676;23.372;2023-07-16T21:34:19;16.10;;;13.97;;
8074;SDS011;4080;42.676;23.372;2023-07-16T21:36:45;15.87;;;14.17;;
8074;SDS011;4080;42.676;23.372;2023-07-16T21:39:13;15.67;;;14.27;;
8074;SDS011;4080;42.676;23.372;2023-07-16T21:41:40;15.67;;;14.07;;
8074;SDS011;4080;42.676;23.372;2023-07-16T21:44:07;14.97;;;13.67;;
8074;SDS011;4080;42.676;23.372;2023-07-16T21:46:33;16.60;;;14.90;;
8074;SDS011;4080;42.676;23.372;2023-07-16T21:49:00;16.20;;;14.30;;
8074;SDS011;4080;42.676;23.372;2023-07-16T21:51:27;16.60;;;14.67;;
8074;SDS011;4080;42.676;23.372;2023-07-16T21:53:54;16.20;;;14.67;;
8074;SDS011;4080;42.676;23.372;2023-07-16T21:56:22;17.63;;;14.50;;
8074;SDS011;4080;42.676;23.372;2023-07-16T21:58:48;15.73;;;14.23;;
8074;SDS011;4080;42.676;23.372;2023-07-16T22:01:15;15.23;;;13.83;;
8074;SDS011;4080;42.676;23.372;2023-07-16T22:03:43;15.57;;;14.07;;
8074;SDS011;4080;42.676;23.372;2023-07-16T22:06:10;15.07;;;13.60;;
8074;SDS011;4080;42.676;23.372;2023-07-16T22:08:36;15.30;;;13.80;;
8074;SDS011;4080;42.676;23.372;2023-07-16T22:11:03;13.80;;;12.70;;
8074;SDS011;4080;42.676;23.372;2023-07-16T22:13:31;14.17;;;12.77;;
8074;SDS011;4080;42.676;23.372;2023-07-16T22:15:58;15.30;;;13.77;;
8074;SDS011;4080;42.676;23.372;2023-07-16T22:18:25;14.20;;;12.90;;
8074;SDS011;4080;42.676;23.372;2023-07-16T22:20:52;15.77;;;14.17;;
8074;SDS011;4080;42.676;23.372;2023-07-16T22:23:18;14.50;;;13.10;;
8074;SDS011;4080;42.676;23.372;2023-07-16T22:25:45;15.33;;;13.73;;
8074;SDS011;4080;42.676;23.372;2023-07-16T22:28:12;14.70;;;13.23;;
8074;SDS011;4080;42.676;23.372;2023-07-16T22:30:40;16.30;;;12.83;;
8074;SDS011;4080;42.676;23.372;2023-07-16T22:33:07;14.87;;;13.50;;
8074;SDS011;4080;42.676;23.372;2023-07-16T22:35:33;14.63;;;13.23;;
8074;SDS011;4080;42.676;23.372;2023-07-16T22:38:00;14.53;;;13.23;;
8074;SDS011;4080;42.676;23.372;2023-07-16T22:40:27;14.70;;;13.13;;
8074;SDS011;4080;42.676;23.372;2023-07-16T22:42:54;14.30;;;12.83;;
8074;SDS011;4080;42.676;23.372;2023-07-16T22:45:20;14.17;;;12.73;;
8074;SDS011;4080;42.676;23.372;2023-07-16T22:47:48;14.70;;;13.30;;
8074;SDS011;4080;42.676;23.372;2023-07-16T22:50:15;14.67;;;12.97;;
8074;SDS011;4080;42.676;23.372;2023-07-16T22:52:43;14.93;;;13.50;;
8074;SDS011;4080;42.676;23.372;2023-07-16T22:55:09;13.83;;;12.47;;
8074;SDS011;4080;42.676;23.372;2023-07-16T22:57:36;15.20;;;13.70;;
8074;SDS011;4080;42.676;23.372;2023-07-16T23:00:03;14.73;;;13.33;;
8074;SDS011;4080;42.676;23.372;2023-07-16T23:02:33;14.27;;;12.80;;
8074;SDS011;4080;42.676;23.372;2023-07-16T23:05:01;13.93;;;12.63;;
8074;SDS011;4080;42.676;23.372;2023-07-16T23:07:27;16.27;;;13.50;;
8074;SDS011;4080;42.676;23.372;2023-07-16T23:09:55;15.40;;;13.40;;
8074;SDS011;4080;42.676;23.372;2023-07-16T23:12:22;14.87;;;13.57;;
8074;SDS011;4080;42.676;23.372;2023-07-16T23:14:49;15.13;;;13.67;;
8074;SDS011;4080;42.676;23.372;2023-07-16T23:17:16;14.60;;;13.30;;
8074;SDS011;4080;42.676;23.372;2023-07-16T23:19:43;13.80;;;12.47;;
8074;SDS011;4080;42.676;23.372;2023-07-16T23:22:11;15.30;;;13.77;;
8074;SDS011;4080;42.676;23.372;2023-07-16T23:24:38;14.20;;;12.93;;
8074;SDS011;4080;42.676;23.372;2023-07-16T23:27:05;15.23;;;13.70;;
8074;SDS011;4080;42.676;23.372;2023-07-16T23:29:32;13.87;;;12.60;;
8074;SDS011;4080;42.676;23.372;2023-07-16T23:31:59;14.40;;;13.17;;
8074;SDS011;4080;42.676;23.372;2023-07-16T23:34:26;14.53;;;13.13;;
8074;SDS011;4080;42.676;23.372;2023-07-16T23:36:53;15.30;;;13.87;;
8074;SDS011;4080;42.676;23.372;2023-07-16T23:39:21;15.67;;;13.47;;
8074;SDS011;4080;42.676;23.372;2023-07-16T23:41:48;13.70;;;12.30;;
8074;SDS011;4080;42.676;23.372;2023-07-16T23:44:15;14.47;;;12.97;;
8074;SDS011;4080;42.676;23.372;2023-07-16T23:46:42;14.60;;;13.23;;
8074;SDS011;4080;42.676;23.372;2023-07-16T23:49:09;13.33;;;12.10;;
8074;SDS011;4080;42.676;23.372;2023-07-16T23:51:35;14.27;;;12.97;;
8074;SDS011;4080;42.676;23.372;2023-07-16T23:54:02;14.73;;;13.27;;
8074;SDS011;4080;42.676;23.372;2023-07-16T23:56:31;14.03;;;12.63;;
8074;SDS011;4080;42.676;23.372;2023-07-16T23:58:58;15.80;;;13.07;;
